Ana Sayfa
METAR-TAF:

METAR-TAF

Havaalanları :

Mexicali, Meksika

Enlem: 32-37-50N, Boylam: 115-14-30W, yükseklik: 22 m

Güncel hava durumu gözlemi

Rapor saat 15:40 UTC de 54 dakika önce yapıldı.
Rüzgar batı/kuzeybatıdan 4 kt
Sıcaklık 16°C
Nem 48%
Basınç 1011 hPa
Görüş mesafesi: 16.1 km
Açık gökyüzü

METAR: MMML 051540Z 30004KT 10SM SKC 16/05 A2984

Saat: 11:34 (16:34 UTC)

Tahmin

Rapor saat 05:05 UTC de 11 saat ve 29 dakika önce yapıldı.
Ayın 05'si saat 06 UTC'den ayın 06'si saat 06 UTC'ye kadar geçerli Tahmin
Rüzgar batı/kuzeybatıdan 5 kt
Görüş mesafesi: 10 km
Açık gökyüzü
Ayın 05'si saat 1800 UTC'den
Rüzgar güney/güneydoğudan 10 kt
Görüş mesafesi: 10 km
Açık gökyüzü
Ayın 06'si saat 0200 UTC'den
Rüzgar batı/kuzeybatıdan 5 kt
Görüş mesafesi: 10 km
25000 ft yükseklikte parçalı bulutlu

TAF: MMML 050505Z 0506/0606 30005KT P6SM SKC FM051800 16010KT P6SM SKC FM060200 30005KT P6SM SCT250

4.000'den fazla havaalanı için hava durumu gözlemleri ve tahminleri (METAR ve TAF raporları).

Kullanılabilir istasyonlar harita üzerinde sarı ve kırmızı noktalarla gösterilir.

İstasyonun adını görmek için fareyi noktanın üzerinde gezdirin.

Sonrasında hava gözlem ve tahminlerini görmek için tıklayın.

Haritayı değiştirmek için: yaklaştırmak için siyah artı işaretli yeşil düğmeye ve uzaklaştırmak için de eksi işaretli düğmeye hızla tıklayın; bitişik haritalar için yeşil okları kullanın.


METAR-TAF: